Time;durP1;ratioP1;P1;durP2;ratioP2;P2;SDS_P1;SDS_P2;PMS_P1;PMS_P2;Temp;Humidity;BMP_temperature;BMP_pressure;BME280_temperature;BME280_humidity;BME280_pressure;Samples;Min_cycle;Max_cycle;Signal;HPM_P1;HPM_P2
2022/10/10 00:01:52;;;;;;;;;;;10.50;68.50;;;;;;5062015;28;20330;-77
2022/10/10 00:04:18;;;;;;;;;;;10.60;68.50;;;;;;5046796;28;19931;-79
2022/10/10 00:06:43;;;;;;;;;;;10.60;68.50;;;;;;5040316;28;19985;-78
2022/10/10 00:09:09;;;;;;;;;;;10.60;68.50;;;;;;5078956;28;19919;-76
2022/10/10 00:11:34;;;;;;;;;;;10.60;68.50;;;;;;5074121;28;19938;-77
2022/10/10 00:14:00;;;;;;;;;;;10.60;68.50;;;;;;5057696;28;20407;-78
2022/10/10 00:16:26;;;;;;;;;;;10.60;68.50;;;;;;5058058;28;19949;-77
2022/10/10 00:18:51;;;;;;;;;;;10.60;68.50;;;;;;5049601;28;20407;-78
2022/10/10 00:21:17;;;;;;;;;;;10.60;68.50;;;;;;5074040;28;19925;-77
2022/10/10 00:23:43;;;;;;;;;;;10.60;68.50;;;;;;5057319;28;20830;-77
2022/10/10 00:26:09;;;;;;;;;;;10.60;68.60;;;;;;5059996;28;19994;-77
2022/10/10 00:28:37;;;;;;;;;;;10.60;68.60;;;;;;5060700;28;20319;-77
2022/10/10 00:31:03;;;;;;;;;;;10.60;68.50;;;;;;5076094;28;19912;-76
2022/10/10 00:33:29;;;;;;;;;;;10.60;68.60;;;;;;5060260;28;20462;-77
2022/10/10 00:35:54;;;;;;;;;;;10.60;68.50;;;;;;5042975;28;19973;-76
2022/10/10 00:38:20;;;;;;;;;;;10.50;68.50;;;;;;5071174;28;19912;-77
2022/10/10 00:40:49;;;;;;;;;;;10.50;68.50;;;;;;5071154;28;19916;-78
2022/10/10 00:43:14;;;;;;;;;;;10.50;68.60;;;;;;5059606;28;20006;-78
2022/10/10 00:45:41;;;;;;;;;;;10.40;68.60;;;;;;5054273;28;19984;-76
2022/10/10 00:48:22;;;;;;;;;;;10.40;68.60;;;;;;5044175;28;19963;-77
2022/10/10 00:50:47;;;;;;;;;;;10.40;68.60;;;;;;5040280;28;20057;-77
2022/10/10 00:53:14;;;;;;;;;;;10.40;68.70;;;;;;5072007;28;20014;-76
2022/10/10 00:55:39;;;;;;;;;;;10.30;68.70;;;;;;5057457;28;19974;-76
2022/10/10 00:58:05;;;;;;;;;;;10.30;68.70;;;;;;5047116;28;20855;-77
2022/10/10 01:00:31;;;;;;;;;;;10.20;68.70;;;;;;5046771;28;19920;-77
2022/10/10 01:02:56;;;;;;;;;;;10.20;68.80;;;;;;5072382;28;20403;-78
2022/10/10 01:05:22;;;;;;;;;;;10.20;68.80;;;;;;5042030;28;19920;-76
2022/10/10 01:07:47;;;;;;;;;;;10.10;68.80;;;;;;5056310;28;20006;-77
2022/10/10 01:10:13;;;;;;;;;;;10.10;68.90;;;;;;5057697;28;20022;-77
2022/10/10 01:12:48;;;;;;;;;;;10.10;68.90;;;;;;5075020;28;20403;-77
2022/10/10 01:15:20;;;;;;;;;;;10.10;68.90;;;;;;5072296;28;19919;-76
2022/10/10 01:18:03;;;;;;;;;;;10.00;68.90;;;;;;5057467;28;20007;-78
2022/10/10 01:20:43;;;;;;;;;;;10.00;68.90;;;;;;5057230;28;19931;-76
2022/10/10 01:23:28;;;;;;;;;;;10.00;68.90;;;;;;5057840;28;19916;-76
2022/10/10 01:25:56;;;;;;;;;;;9.90;69.00;;;;;;5073387;28;19920;-77
2022/10/10 01:28:34;;;;;;;;;;;9.90;69.10;;;;;;5075176;28;19912;-77
2022/10/10 01:30:59;;;;;;;;;;;9.90;69.10;;;;;;5072218;28;19921;-78
2022/10/10 01:33:27;;;;;;;;;;;9.80;69.00;;;;;;5044398;28;19918;-78
2022/10/10 01:35:53;;;;;;;;;;;9.80;69.10;;;;;;5058367;28;19912;-77
2022/10/10 01:38:34;;;;;;;;;;;9.80;69.20;;;;;;5053740;28;19921;-77
2022/10/10 01:41:02;;;;;;;;;;;9.90;69.20;;;;;;5074942;28;19923;-76
2022/10/10 01:43:27;;;;;;;;;;;9.80;69.20;;;;;;5056813;28;19916;-77
2022/10/10 01:45:53;;;;;;;;;;;9.90;69.20;;;;;;5037641;28;19916;-76
2022/10/10 01:48:23;;;;;;;;;;;9.90;69.20;;;;;;5056759;28;19978;-77
2022/10/10 01:50:54;;;;;;;;;;;9.90;69.20;;;;;;5044287;28;19920;-78
2022/10/10 01:53:22;;;;;;;;;;;9.80;69.20;;;;;;5071960;28;19999;-78
2022/10/10 01:55:50;;;;;;;;;;;9.80;69.20;;;;;;5060065;28;19953;-77
2022/10/10 01:58:15;;;;;;;;;;;9.80;69.30;;;;;;5075086;28;19959;-77
2022/10/10 02:00:45;;;;;;;;;;;9.70;69.30;;;;;;5060841;28;20017;-77
2022/10/10 02:03:12;;;;;;;;;;;9.70;69.30;;;;;;5062879;28;19919;-77
2022/10/10 02:05:49;;;;;;;;;;;9.70;69.40;;;;;;5047202;28;19926;-75
2022/10/10 02:08:24;;;;;;;;;;;9.70;69.40;;;;;;5091931;28;19920;-77
2022/10/10 02:10:54;;;;;;;;;;;9.60;69.40;;;;;;5077634;28;19920;-77
2022/10/10 02:13:19;;;;;;;;;;;9.60;69.40;;;;;;5090166;28;19916;-78
2022/10/10 02:15:46;;;;;;;;;;;9.60;69.50;;;;;;5072934;28;20518;-77
2022/10/10 02:18:13;;;;;;;;;;;9.50;69.50;;;;;;5046856;28;19919;-77
2022/10/10 02:20:38;;;;;;;;;;;9.50;69.60;;;;;;5059184;28;19920;-77
2022/10/10 02:23:04;;;;;;;;;;;9.50;69.50;;;;;;5060432;28;19912;-78
2022/10/10 02:25:30;;;;;;;;;;;9.50;69.60;;;;;;5073368;28;19915;-76
2022/10/10 02:28:07;;;;;;;;;;;9.50;69.60;;;;;;5059190;28;19916;-78
2022/10/10 02:30:33;;;;;;;;;;;9.50;69.60;;;;;;5059225;28;19934;-77
2022/10/10 02:32:59;;;;;;;;;;;9.40;69.60;;;;;;5040142;28;19995;-77
2022/10/10 02:35:29;;;;;;;;;;;9.40;69.60;;;;;;5090135;28;19919;-77
2022/10/10 02:37:54;;;;;;;;;;;9.40;69.70;;;;;;5059801;28;19934;-77
2022/10/10 02:40:21;;;;;;;;;;;9.40;69.70;;;;;;5075565;28;20498;-77
2022/10/10 02:42:46;;;;;;;;;;;9.40;69.80;;;;;;5057424;28;19917;-78
2022/10/10 02:45:12;;;;;;;;;;;9.40;69.80;;;;;;5090164;28;19916;-78
2022/10/10 02:47:37;;;;;;;;;;;9.40;69.80;;;;;;5058101;28;19912;-78
2022/10/10 02:50:03;;;;;;;;;;;9.40;69.80;;;;;;5073369;28;20364;-77
2022/10/10 02:52:28;;;;;;;;;;;9.30;69.70;;;;;;5061692;28;19966;-77
2022/10/10 02:54:54;;;;;;;;;;;9.30;69.70;;;;;;5076973;28;19920;-77
2022/10/10 02:57:19;;;;;;;;;;;9.30;69.80;;;;;;5060689;28;19922;-77
2022/10/10 02:59:45;;;;;;;;;;;9.20;69.70;;;;;;5073366;28;19927;-77
2022/10/10 03:02:10;;;;;;;;;;;9.20;69.80;;;;;;5061100;28;19919;-77
2022/10/10 03:04:36;;;;;;;;;;;9.10;69.80;;;;;;5073065;28;19912;-77
2022/10/10 03:07:02;;;;;;;;;;;9.10;69.90;;;;;;5069537;28;19924;-77
2022/10/10 03:09:27;;;;;;;;;;;9.00;70.00;;;;;;5060378;28;19912;-78
2022/10/10 03:11:53;;;;;;;;;;;9.00;69.90;;;;;;5076253;28;20398;-78
2022/10/10 03:14:18;;;;;;;;;;;8.90;70.00;;;;;;5058879;28;19912;-76
2022/10/10 03:16:44;;;;;;;;;;;8.90;70.00;;;;;;5045935;28;19923;-78
2022/10/10 03:19:09;;;;;;;;;;;8.90;70.00;;;;;;5070161;28;19912;-77
2022/10/10 03:21:35;;;;;;;;;;;9.00;70.20;;;;;;5058508;28;19924;-78
2022/10/10 03:24:00;;;;;;;;;;;8.90;70.10;;;;;;5071261;28;20301;-77
2022/10/10 03:26:26;;;;;;;;;;;9.00;70.20;;;;;;5070762;28;19923;-77
2022/10/10 03:28:51;;;;;;;;;;;9.00;70.20;;;;;;5075016;28;20035;-77
2022/10/10 03:31:17;;;;;;;;;;;9.00;70.20;;;;;;5042425;28;19916;-77
2022/10/10 03:33:42;;;;;;;;;;;9.00;70.20;;;;;;5045588;28;20528;-78
2022/10/10 03:36:08;;;;;;;;;;;9.00;70.20;;;;;;5060556;28;20415;-78
2022/10/10 03:38:33;;;;;;;;;;;9.10;70.20;;;;;;5071228;28;19916;-78
2022/10/10 03:40:59;;;;;;;;;;;9.10;70.20;;;;;;5090409;28;19924;-78
2022/10/10 03:43:24;;;;;;;;;;;9.20;70.20;;;;;;5060872;28;19912;-77
2022/10/10 03:45:50;;;;;;;;;;;9.20;70.20;;;;;;5059922;28;19916;-77
2022/10/10 03:48:15;;;;;;;;;;;9.20;70.10;;;;;;5076083;28;19916;-77
2022/10/10 03:50:41;;;;;;;;;;;9.20;70.10;;;;;;5074071;28;19919;-77
2022/10/10 03:53:06;;;;;;;;;;;9.20;70.10;;;;;;5077880;28;19921;-77
2022/10/10 03:55:32;;;;;;;;;;;9.20;70.10;;;;;;5042810;28;20412;-78
2022/10/10 03:57:57;;;;;;;;;;;9.20;70.10;;;;;;5072131;28;19934;-77
2022/10/10 04:00:23;;;;;;;;;;;9.30;70.10;;;;;;5075131;28;19940;-77
2022/10/10 04:02:48;;;;;;;;;;;9.20;70.10;;;;;;5058008;28;20028;-76
2022/10/10 04:05:14;;;;;;;;;;;9.30;70.10;;;;;;5059027;28;20625;-77
2022/10/10 04:07:41;;;;;;;;;;;9.20;70.00;;;;;;5070404;28;19931;-76
2022/10/10 04:10:07;;;;;;;;;;;9.30;70.10;;;;;;5058357;28;19920;-76
2022/10/10 04:12:32;;;;;;;;;;;9.20;70.10;;;;;;5056988;28;19981;-77
2022/10/10 04:14:58;;;;;;;;;;;9.20;70.10;;;;;;5073123;28;19916;-77
2022/10/10 04:17:23;;;;;;;;;;;9.10;70.10;;;;;;5073536;28;19923;-77
2022/10/10 04:19:49;;;;;;;;;;;9.10;70.20;;;;;;5076247;28;19928;-76
2022/10/10 04:22:15;;;;;;;;;;;9.10;70.20;;;;;;5074259;28;19916;-75
2022/10/10 04:24:41;;;;;;;;;;;9.10;70.20;;;;;;5052777;28;20005;-76
2022/10/10 04:27:06;;;;;;;;;;;9.00;70.20;;;;;;5073182;28;19951;-77
2022/10/10 04:29:31;;;;;;;;;;;9.00;70.20;;;;;;5057442;28;19912;-75
2022/10/10 04:31:57;;;;;;;;;;;9.00;70.30;;;;;;5057630;28;20329;-76
2022/10/10 04:34:22;;;;;;;;;;;8.90;70.20;;;;;;5071767;28;19999;-75
2022/10/10 04:36:48;;;;;;;;;;;8.90;70.30;;;;;;5070160;28;20372;-76
2022/10/10 04:39:13;;;;;;;;;;;8.90;70.30;;;;;;5068220;28;19943;-75
2022/10/10 04:41:39;;;;;;;;;;;8.80;70.30;;;;;;5068450;28;20012;-76
2022/10/10 04:44:04;;;;;;;;;;;8.80;70.40;;;;;;5061795;28;19920;-76
2022/10/10 04:46:30;;;;;;;;;;;8.80;70.40;;;;;;5066642;28;20304;-76
2022/10/10 04:48:55;;;;;;;;;;;8.80;70.50;;;;;;5057821;28;19943;-77
2022/10/10 04:51:20;;;;;;;;;;;8.80;70.50;;;;;;5066817;28;19991;-75
2022/10/10 04:53:46;;;;;;;;;;;8.80;70.50;;;;;;5068904;28;20421;-76
2022/10/10 04:56:11;;;;;;;;;;;8.80;70.50;;;;;;5069944;28;19966;-78
2022/10/10 04:58:37;;;;;;;;;;;8.80;70.50;;;;;;5043763;28;19920;-75
2022/10/10 05:01:03;;;;;;;;;;;8.80;70.50;;;;;;5056067;28;20417;-76
2022/10/10 05:03:28;;;;;;;;;;;8.80;70.50;;;;;;5071349;28;19920;-76
2022/10/10 05:05:54;;;;;;;;;;;8.70;70.50;;;;;;5067539;28;19916;-77
2022/10/10 05:08:19;;;;;;;;;;;8.70;70.50;;;;;;5066348;28;19965;-76
2022/10/10 05:10:45;;;;;;;;;;;8.70;70.60;;;;;;5041620;28;19915;-77
2022/10/10 05:13:10;;;;;;;;;;;8.70;70.60;;;;;;5055278;28;19915;-76
2022/10/10 05:15:36;;;;;;;;;;;8.60;70.60;;;;;;5055382;28;19916;-75
2022/10/10 05:18:02;;;;;;;;;;;8.60;70.60;;;;;;5044198;28;19919;-75
2022/10/10 05:20:27;;;;;;;;;;;8.60;70.60;;;;;;5054420;28;19916;-76
2022/10/10 05:22:53;;;;;;;;;;;8.60;70.70;;;;;;5066566;28;20307;-76
2022/10/10 05:25:18;;;;;;;;;;;8.60;70.70;;;;;;5069924;28;20380;-76
2022/10/10 05:27:44;;;;;;;;;;;8.50;70.60;;;;;;5052758;28;20720;-76
2022/10/10 05:30:09;;;;;;;;;;;8.50;70.70;;;;;;5055211;28;20014;-76
2022/10/10 05:32:35;;;;;;;;;;;8.60;70.80;;;;;;5071752;28;19913;-77
2022/10/10 05:35:00;;;;;;;;;;;8.50;70.80;;;;;;5038232;28;19919;-76
2022/10/10 05:37:26;;;;;;;;;;;8.50;70.80;;;;;;5036716;28;19927;-76
2022/10/10 05:39:51;;;;;;;;;;;8.50;70.80;;;;;;5041367;28;19920;-76
2022/10/10 05:42:17;;;;;;;;;;;8.40;70.80;;;;;;5038956;28;19912;-77
2022/10/10 05:44:42;;;;;;;;;;;8.40;70.80;;;;;;5070928;28;19961;-76
2022/10/10 05:47:08;;;;;;;;;;;8.40;70.80;;;;;;5036695;28;20293;-76
2022/10/10 05:49:33;;;;;;;;;;;8.40;70.90;;;;;;5068934;28;19920;-75
2022/10/10 05:51:59;;;;;;;;;;;8.30;70.90;;;;;;5037152;28;21680;-76
2022/10/10 05:54:24;;;;;;;;;;;8.40;71.00;;;;;;5053704;28;19913;-76
2022/10/10 05:56:50;;;;;;;;;;;8.30;70.90;;;;;;5070091;28;19959;-76
2022/10/10 05:59:15;;;;;;;;;;;8.30;70.90;;;;;;5070911;28;19922;-76
2022/10/10 06:01:40;;;;;;;;;;;8.30;71.00;;;;;;5054461;28;20368;-75
2022/10/10 06:04:06;;;;;;;;;;;8.30;71.00;;;;;;5056746;28;20027;-77
2022/10/10 06:06:32;;;;;;;;;;;8.30;71.00;;;;;;5055000;28;19920;-76
2022/10/10 06:08:58;;;;;;;;;;;8.30;71.00;;;;;;5064765;28;19920;-75
2022/10/10 06:11:24;;;;;;;;;;;8.30;71.00;;;;;;5042911;28;19920;-76
2022/10/10 06:13:53;;;;;;;;;;;8.30;71.10;;;;;;5068338;28;19912;-76
2022/10/10 06:16:19;;;;;;;;;;;8.20;71.10;;;;;;5058081;28;19916;-76
2022/10/10 06:18:45;;;;;;;;;;;8.20;71.10;;;;;;5057505;28;20007;-77
2022/10/10 06:21:10;;;;;;;;;;;8.20;71.10;;;;;;5045010;28;20023;-77
2022/10/10 06:23:36;;;;;;;;;;;8.20;71.20;;;;;;5054334;28;19923;-77
2022/10/10 06:26:01;;;;;;;;;;;8.20;71.20;;;;;;5068451;28;19916;-76
2022/10/10 06:28:27;;;;;;;;;;;8.20;71.20;;;;;;5068902;28;19925;-75
2022/10/10 06:30:52;;;;;;;;;;;8.30;71.20;;;;;;5060511;28;19920;-78
2022/10/10 06:33:18;;;;;;;;;;;8.30;71.30;;;;;;5060953;28;20544;-77
2022/10/10 06:35:46;;;;;;;;;;;8.30;71.20;;;;;;5045985;28;20387;-78
2022/10/10 06:38:12;;;;;;;;;;;8.40;71.20;;;;;;5055347;28;19917;-77
2022/10/10 06:40:38;;;;;;;;;;;8.40;71.20;;;;;;5041305;28;19930;-76
2022/10/10 06:43:05;;;;;;;;;;;8.50;71.20;;;;;;5060270;28;19987;-77
2022/10/10 06:45:34;;;;;;;;;;;8.60;71.20;;;;;;5060609;28;20048;-77
2022/10/10 06:47:59;;;;;;;;;;;8.70;71.20;;;;;;5055293;28;19920;-77
2022/10/10 06:50:25;;;;;;;;;;;8.70;71.10;;;;;;5059605;28;20440;-78
2022/10/10 06:52:51;;;;;;;;;;;8.70;71.00;;;;;;5054967;28;19939;-78
2022/10/10 06:55:16;;;;;;;;;;;8.80;71.00;;;;;;5043993;28;20119;-78
2022/10/10 06:57:42;;;;;;;;;;;8.80;71.00;;;;;;5056173;28;19924;-77
2022/10/10 07:00:08;;;;;;;;;;;8.90;71.00;;;;;;5070095;28;19931;-77
2022/10/10 07:02:33;;;;;;;;;;;9.00;71.00;;;;;;5070235;28;19913;-77
2022/10/10 07:04:59;;;;;;;;;;;9.00;70.90;;;;;;5046352;28;19923;-77
2022/10/10 07:07:24;;;;;;;;;;;9.10;70.80;;;;;;5034958;28;19923;-76
2022/10/10 07:09:50;;;;;;;;;;;9.10;70.80;;;;;;5057767;28;19990;-76
2022/10/10 07:12:15;;;;;;;;;;;9.20;70.90;;;;;;5072267;28;19916;-77
2022/10/10 07:14:41;;;;;;;;;;;9.30;70.80;;;;;;5085153;28;20433;-76
2022/10/10 07:17:06;;;;;;;;;;;9.40;70.80;;;;;;5058065;28;19928;-76
2022/10/10 07:19:32;;;;;;;;;;;9.40;70.70;;;;;;5057094;28;19912;-76
2022/10/10 07:21:57;;;;;;;;;;;9.50;70.70;;;;;;5058165;28;19927;-77
2022/10/10 07:24:23;;;;;;;;;;;9.60;70.70;;;;;;5068374;28;20532;-78
2022/10/10 07:26:48;;;;;;;;;;;9.70;70.60;;;;;;5038541;28;20261;-77
2022/10/10 07:29:14;;;;;;;;;;;9.80;70.60;;;;;;5072881;28;20419;-77
2022/10/10 07:31:39;;;;;;;;;;;9.90;70.50;;;;;;5059475;28;19972;-78
2022/10/10 07:34:05;;;;;;;;;;;10.00;70.50;;;;;;5070463;28;19912;-78
2022/10/10 07:36:30;;;;;;;;;;;10.20;70.40;;;;;;5066569;28;19919;-76
2022/10/10 07:38:56;;;;;;;;;;;10.30;70.40;;;;;;5072688;28;20434;-77
2022/10/10 07:41:21;;;;;;;;;;;10.50;70.40;;;;;;5055386;28;19994;-77
2022/10/10 07:43:47;;;;;;;;;;;10.60;71.10;;;;;;5060260;28;20367;-77
2022/10/10 07:46:13;;;;;;;;;;;10.70;70.20;;;;;;5070080;28;20635;-77
2022/10/10 07:48:39;;;;;;;;;;;10.80;70.10;;;;;;5060249;28;20056;-76
2022/10/10 07:51:05;;;;;;;;;;;11.00;70.00;;;;;;5056285;28;19955;-77
2022/10/10 07:53:31;;;;;;;;;;;11.10;69.90;;;;;;5054509;28;20030;-78
2022/10/10 07:55:56;;;;;;;;;;;11.20;69.80;;;;;;5069091;28;20004;-76
2022/10/10 07:58:21;;;;;;;;;;;11.30;69.70;;;;;;5076073;28;19939;-78
2022/10/10 08:00:47;;;;;;;;;;;11.40;69.60;;;;;;5094779;27;20332;-77
2022/10/10 08:03:13;;;;;;;;;;;11.40;69.50;;;;;;5093079;27;19923;-76
2022/10/10 08:05:39;;;;;;;;;;;11.40;69.40;;;;;;5076181;28;19924;-75
2022/10/10 08:08:05;;;;;;;;;;;11.50;69.50;;;;;;5079355;28;19922;-77
2022/10/10 08:10:30;;;;;;;;;;;11.60;69.50;;;;;;5080374;28;20295;-77
2022/10/10 08:12:56;;;;;;;;;;;11.70;69.50;;;;;;5076589;28;20015;-77
2022/10/10 08:15:21;;;;;;;;;;;11.80;69.60;;;;;;5077908;28;20542;-77
2022/10/10 08:17:46;;;;;;;;;;;12.00;69.60;;;;;;5081961;28;20745;-76
2022/10/10 08:20:12;;;;;;;;;;;12.10;69.30;;;;;;5075871;28;19955;-79
2022/10/10 08:22:38;;;;;;;;;;;12.30;69.30;;;;;;5077402;28;19912;-76
2022/10/10 08:25:04;;;;;;;;;;;12.50;69.20;;;;;;5061570;28;19916;-78
2022/10/10 08:27:29;;;;;;;;;;;12.70;69.10;;;;;;5076065;28;19911;-77
2022/10/10 08:29:55;;;;;;;;;;;12.80;68.80;;;;;;5034266;28;19927;-77
2022/10/10 08:32:20;;;;;;;;;;;12.90;68.70;;;;;;5010576;28;20014;-77
2022/10/10 08:34:46;;;;;;;;;;;13.10;68.60;;;;;;5077089;28;19916;-78
2022/10/10 08:37:11;;;;;;;;;;;13.20;68.40;;;;;;5075851;28;19989;-77
2022/10/10 08:39:37;;;;;;;;;;;13.40;68.30;;;;;;5074859;28;19919;-78
2022/10/10 08:42:02;;;;;;;;;;;13.50;68.20;;;;;;5056228;28;19947;-77
2022/10/10 08:44:34;;;;;;;;;;;13.70;68.10;;;;;;5075847;28;19947;-77
2022/10/10 08:47:03;;;;;;;;;;;13.80;68.10;;;;;;5064827;28;19915;-77
2022/10/10 08:49:33;;;;;;;;;;;13.90;67.90;;;;;;5076735;28;19927;-78
2022/10/10 08:52:12;;;;;;;;;;;14.00;67.80;;;;;;5075872;28;19916;-77
2022/10/10 08:54:38;;;;;;;;;;;14.10;67.70;;;;;;5081179;27;19927;-77
2022/10/10 08:57:04;;;;;;;;;;;14.30;67.80;;;;;;5059847;28;19912;-77
2022/10/10 08:59:33;;;;;;;;;;;14.60;67.70;;;;;;5023355;28;19923;-78
2022/10/10 09:02:03;;;;;;;;;;;14.70;67.50;;;;;;5052634;28;20288;-77
2022/10/10 09:04:32;;;;;;;;;;;14.90;67.40;;;;;;5072462;28;22973;-77
2022/10/10 09:10:21;;;;;;;;;;;15.40;67.10;;;;;;5044818;28;21208;-77
2022/10/10 09:13:05;;;;;;;;;;;15.60;66.90;;;;;;5029317;28;20690;-78
2022/10/10 09:15:42;;;;;;;;;;;15.80;66.70;;;;;;5035553;28;19948;-78
2022/10/10 09:18:07;;;;;;;;;;;16.10;66.60;;;;;;5051230;28;20327;-77
2022/10/10 09:20:35;;;;;;;;;;;16.30;66.40;;;;;;5052117;28;19938;-78
2022/10/10 09:23:01;;;;;;;;;;;16.50;66.40;;;;;;5049266;28;19928;-78
2022/10/10 09:25:29;;;;;;;;;;;16.70;66.10;;;;;;5054493;28;20464;-78
2022/10/10 09:27:59;;;;;;;;;;;16.80;65.80;;;;;;5067097;28;19939;-78
2022/10/10 09:30:25;;;;;;;;;;;17.00;65.70;;;;;;5052004;28;19962;-77
2022/10/10 09:32:58;;;;;;;;;;;17.10;65.50;;;;;;5032458;28;19913;-77
2022/10/10 09:35:25;;;;;;;;;;;17.30;65.40;;;;;;5064658;28;19920;-78
2022/10/10 09:38:01;;;;;;;;;;;17.50;65.30;;;;;;5053771;28;19919;-78
2022/10/10 09:40:27;;;;;;;;;;;17.70;65.10;;;;;;5042485;28;20398;-78
2022/10/10 09:42:52;;;;;;;;;;;17.90;65.10;;;;;;5034369;28;19920;-79
2022/10/10 09:45:19;;;;;;;;;;;18.20;64.90;;;;;;5051563;28;19955;-77
2022/10/10 09:47:46;;;;;;;;;;;18.30;64.70;;;;;;5037971;28;20489;-77
2022/10/10 09:50:12;;;;;;;;;;;18.40;64.40;;;;;;5025204;28;20402;-78
2022/10/10 09:52:38;;;;;;;;;;;18.40;64.40;;;;;;5045511;28;19908;-76
2022/10/10 09:55:32;;;;;;;;;;;18.60;64.40;;;;;;5036904;28;19913;-76
2022/10/10 09:58:00;;;;;;;;;;;18.80;64.30;;;;;;5034314;28;20006;-77
2022/10/10 10:00:27;;;;;;;;;;;19.00;64.20;;;;;;5058064;28;19917;-77
2022/10/10 10:03:07;;;;;;;;;;;19.20;64.00;;;;;;5045933;28;19919;-78
2022/10/10 10:05:33;;;;;;;;;;;19.40;63.80;;;;;;5031233;28;19927;-77
2022/10/10 10:07:58;;;;;;;;;;;19.60;63.60;;;;;;5053242;28;20296;-78
2022/10/10 10:10:25;;;;;;;;;;;19.70;63.40;;;;;;5073093;28;19928;-78
2022/10/10 10:12:51;;;;;;;;;;;19.90;63.30;;;;;;5057745;28;19913;-78
2022/10/10 10:15:17;;;;;;;;;;;20.10;63.20;;;;;;5073246;28;19920;-78
2022/10/10 10:17:43;;;;;;;;;;;20.20;63.00;;;;;;5063325;28;19920;-78
2022/10/10 10:20:34;;;;;;;;;;;20.40;62.90;;;;;;5077372;28;20506;-78
2022/10/10 10:23:00;;;;;;;;;;;20.60;62.60;;;;;;5074541;28;19920;-79
2022/10/10 10:25:25;;;;;;;;;;;20.80;62.60;;;;;;5075205;28;19927;-78
2022/10/10 10:27:51;;;;;;;;;;;21.00;62.40;;;;;;5072476;28;19930;-79
2022/10/10 10:30:23;;;;;;;;;;;21.10;62.30;;;;;;5072847;28;22319;-78
2022/10/10 10:33:00;;;;;;;;;;;21.30;62.00;;;;;;5058410;28;19938;-77
2022/10/10 10:35:38;;;;;;;;;;;21.50;62.00;;;;;;5077396;28;19917;-78
2022/10/10 10:38:22;;;;;;;;;;;21.70;61.90;;;;;;5068845;28;19983;-78
2022/10/10 10:40:50;;;;;;;;;;;21.90;61.50;;;;;;5076895;28;19917;-79
2022/10/10 10:43:33;;;;;;;;;;;22.00;61.30;;;;;;5073604;28;20014;-77
2022/10/10 10:45:58;;;;;;;;;;;22.20;61.10;;;;;;5059916;28;20380;-77
2022/10/10 10:48:24;;;;;;;;;;;22.30;60.90;;;;;;5073139;28;19919;-76
2022/10/10 10:51:04;;;;;;;;;;;22.40;61.10;;;;;;5075302;28;20584;-77
2022/10/10 10:53:51;;;;;;;;;;;22.50;60.80;;;;;;5050469;28;19920;-77
2022/10/10 10:56:24;;;;;;;;;;;22.70;60.70;;;;;;5045366;28;19913;-78
2022/10/10 10:58:50;;;;;;;;;;;22.80;60.60;;;;;;5085373;28;19932;-76
2022/10/10 11:01:19;;;;;;;;;;;23.00;60.50;;;;;;5061865;28;19920;-76
2022/10/10 11:03:49;;;;;;;;;;;23.00;60.30;;;;;;5061674;28;19913;-76
2022/10/10 11:06:15;;;;;;;;;;;23.20;60.30;;;;;;5089227;28;19916;-77
2022/10/10 11:08:52;;;;;;;;;;;23.20;60.10;;;;;;5074081;28;19974;-78
2022/10/10 11:11:28;;;;;;;;;;;23.30;60.90;;;;;;5071877;28;19916;-79
2022/10/10 11:13:59;;;;;;;;;;;23.40;60.00;;;;;;5087596;28;19924;-76
2022/10/10 11:16:26;;;;;;;;;;;23.70;60.00;;;;;;5072713;28;19944;-76
2022/10/10 11:19:01;;;;;;;;;;;23.90;59.80;;;;;;5056133;28;20045;-77
2022/10/10 11:21:28;;;;;;;;;;;24.00;59.60;;;;;;5073276;28;19916;-78
2022/10/10 11:23:57;;;;;;;;;;;24.20;59.50;;;;;;5073594;28;19955;-78
2022/10/10 11:26:25;;;;;;;;;;;24.30;59.30;;;;;;5060583;28;20864;-76
2022/10/10 11:28:53;;;;;;;;;;;24.40;59.20;;;;;;5089410;28;19939;-76
2022/10/10 11:31:39;;;;;;;;;;;24.60;59.20;;;;;;5075903;28;19916;-75
2022/10/10 11:34:06;;;;;;;;;;;24.70;59.00;;;;;;5056964;28;19916;-75
2022/10/10 11:36:33;;;;;;;;;;;24.80;59.00;;;;;;5054852;28;19916;-79
2022/10/10 11:38:58;;;;;;;;;;;24.90;58.80;;;;;;5055666;28;19943;-77
2022/10/10 11:41:34;;;;;;;;;;;25.00;58.80;;;;;;5057408;28;20385;-76
2022/10/10 11:44:16;;;;;;;;;;;25.10;58.70;;;;;;5049191;28;19920;-76
2022/10/10 11:46:58;;;;;;;;;;;25.20;58.70;;;;;;5058817;28;19958;-77
2022/10/10 11:49:30;;;;;;;;;;;25.30;58.50;;;;;;5071309;28;19934;-77
2022/10/10 11:51:56;;;;;;;;;;;25.40;58.50;;;;;;5072894;28;20518;-78
2022/10/10 11:54:21;;;;;;;;;;;25.40;58.50;;;;;;5072644;28;19923;-78
2022/10/10 11:56:47;;;;;;;;;;;25.40;58.50;;;;;;5068127;28;20272;-76
2022/10/10 11:59:26;;;;;;;;;;;25.60;58.50;;;;;;5057020;28;19927;-77
2022/10/10 12:01:53;;;;;;;;;;;25.70;58.40;;;;;;5069812;28;19958;-77
2022/10/10 12:04:19;;;;;;;;;;;25.70;58.30;;;;;;5089395;28;19920;-76
2022/10/10 12:06:52;;;;;;;;;;;25.80;58.20;;;;;;5068772;28;19920;-77
2022/10/10 12:09:28;;;;;;;;;;;25.90;58.20;;;;;;5058485;28;19930;-77
2022/10/10 12:12:03;;;;;;;;;;;25.90;58.30;;;;;;5088869;28;19919;-77
2022/10/10 12:14:30;;;;;;;;;;;25.90;58.20;;;;;;5054499;28;19920;-77
2022/10/10 12:16:55;;;;;;;;;;;26.00;58.10;;;;;;5088060;28;19963;-77
2022/10/10 12:19:22;;;;;;;;;;;26.10;58.10;;;;;;5054997;28;19955;-76
2022/10/10 12:21:51;;;;;;;;;;;26.20;57.90;;;;;;5052870;28;19930;-77
2022/10/10 12:24:17;;;;;;;;;;;26.40;58.00;;;;;;5053147;28;19912;-75
2022/10/10 12:26:51;;;;;;;;;;;26.50;57.80;;;;;;5067066;28;19938;-76
2022/10/10 12:29:36;;;;;;;;;;;26.50;57.80;;;;;;5066451;28;19924;-77
2022/10/10 12:32:09;;;;;;;;;;;26.60;57.70;;;;;;5067717;28;19916;-78
2022/10/10 12:34:41;;;;;;;;;;;26.70;57.70;;;;;;5062508;28;20016;-76
2022/10/10 12:37:19;;;;;;;;;;;26.70;57.50;;;;;;5068842;28;19912;-77
2022/10/10 12:40:04;;;;;;;;;;;26.80;57.60;;;;;;5069005;28;19936;-77
2022/10/10 12:42:37;;;;;;;;;;;26.90;57.50;;;;;;5027387;28;19920;-77
2022/10/10 12:45:23;;;;;;;;;;;26.90;57.50;;;;;;5052843;28;19912;-76
2022/10/10 12:47:49;;;;;;;;;;;27.00;57.50;;;;;;5066519;28;19923;-76
2022/10/10 12:50:19;;;;;;;;;;;27.10;57.40;;;;;;5052360;28;19927;-77
2022/10/10 12:52:47;;;;;;;;;;;27.20;57.30;;;;;;5055672;28;19926;-76
2022/10/10 12:55:20;;;;;;;;;;;27.30;57.20;;;;;;5053664;28;19920;-76
2022/10/10 12:57:46;;;;;;;;;;;27.40;57.20;;;;;;5051736;28;19921;-76
2022/10/10 13:00:17;;;;;;;;;;;27.60;57.10;;;;;;5050979;28;19916;-77
2022/10/10 13:02:44;;;;;;;;;;;27.70;57.00;;;;;;5052475;28;19965;-76
2022/10/10 13:05:10;;;;;;;;;;;27.80;57.60;;;;;;5053944;28;19916;-77
2022/10/10 13:07:36;;;;;;;;;;;27.90;56.80;;;;;;5067177;28;19920;-77
2022/10/10 13:10:17;;;;;;;;;;;27.90;56.70;;;;;;5052046;28;19977;-76
2022/10/10 13:12:43;;;;;;;;;;;27.90;56.80;;;;;;5067066;28;19990;-76
2022/10/10 13:15:20;;;;;;;;;;;27.90;56.70;;;;;;5068392;28;20012;-78
2022/10/10 13:17:46;;;;;;;;;;;28.00;56.80;;;;;;5068107;28;19915;-78
2022/10/10 13:20:25;;;;;;;;;;;28.10;56.70;;;;;;5061599;28;19946;-78
2022/10/10 13:22:50;;;;;;;;;;;28.20;56.70;;;;;;5070549;28;19912;-78
2022/10/10 13:25:16;;;;;;;;;;;28.20;56.50;;;;;;5068355;28;19916;-75
2022/10/10 13:27:41;;;;;;;;;;;28.20;56.50;;;;;;5073654;28;19912;-77
2022/10/10 13:30:14;;;;;;;;;;;28.30;56.60;;;;;;5073556;28;19995;-77
2022/10/10 13:32:40;;;;;;;;;;;28.30;56.50;;;;;;5056761;28;19920;-76
2022/10/10 13:35:12;;;;;;;;;;;28.50;56.50;;;;;;5056486;28;19995;-76
2022/10/10 13:37:38;;;;;;;;;;;28.50;56.40;;;;;;5071723;28;20000;-77
2022/10/10 13:40:13;;;;;;;;;;;28.60;56.40;;;;;;5055308;28;20377;-77
2022/10/10 13:42:39;;;;;;;;;;;28.70;56.40;;;;;;5072010;28;19916;-77
2022/10/10 13:45:23;;;;;;;;;;;28.60;56.40;;;;;;5072661;28;20329;-75
2022/10/10 13:47:52;;;;;;;;;;;28.50;56.30;;;;;;5075420;28;19920;-76
2022/10/10 13:50:30;;;;;;;;;;;28.70;56.40;;;;;;5075862;28;19919;-76
2022/10/10 13:53:14;;;;;;;;;;;28.90;56.30;;;;;;5074025;28;19912;-78
2022/10/10 13:55:39;;;;;;;;;;;28.90;56.10;;;;;;5072480;28;19912;-77
2022/10/10 13:58:05;;;;;;;;;;;29.10;56.20;;;;;;5059366;28;19965;-77
2022/10/10 14:00:31;;;;;;;;;;;29.30;56.00;;;;;;5059481;28;19922;-77
2022/10/10 14:02:57;;;;;;;;;;;29.50;55.80;;;;;;5061874;28;19917;-77
2022/10/10 14:05:26;;;;;;;;;;;29.60;55.60;;;;;;5078294;28;20522;-77
2022/10/10 14:07:52;;;;;;;;;;;29.70;55.50;;;;;;5060149;28;19912;-76
2022/10/10 14:10:18;;;;;;;;;;;29.80;55.40;;;;;;5056828;28;19941;-77
2022/10/10 14:12:50;;;;;;;;;;;29.90;55.40;;;;;;5060892;28;20186;-77
2022/10/10 14:15:35;;;;;;;;;;;29.90;55.30;;;;;;5078292;28;19966;-73
2022/10/10 14:18:00;;;;;;;;;;;29.90;55.20;;;;;;5080255;28;19920;-74
2022/10/10 14:20:26;;;;;;;;;;;29.80;55.20;;;;;;5079467;28;20315;-73
2022/10/10 14:22:51;;;;;;;;;;;29.70;55.30;;;;;;5057563;28;19920;-76
2022/10/10 14:25:17;;;;;;;;;;;29.60;55.40;;;;;;5054751;28;19912;-78
2022/10/10 14:27:42;;;;;;;;;;;29.60;55.50;;;;;;5070557;28;19916;-76
2022/10/10 14:30:09;;;;;;;;;;;29.50;55.40;;;;;;5071933;28;19923;-78
2022/10/10 14:32:34;;;;;;;;;;;29.40;55.40;;;;;;5090683;28;19950;-76